Time;durP1;ratioP1;P1;durP2;ratioP2;P2;SDS_P1;SDS_P2;PMS_P1;PMS_P2;Temp;Humidity;BMP_temperature;BMP_pressure;BME280_temperature;BME280_humidity;BME280_pressure;Samples;Min_cycle;Max_cycle;Signal;HPM_P1;HPM_P2
2021/09/10 00:02:09;;;;;;;5.18;4.65;;;19.90;67.70;;;;;;5107230;28;20559;-73
2021/09/10 00:04:35;;;;;;;7.32;5.25;;;19.90;67.50;;;;;;5110708;28;20031;-73
2021/09/10 00:07:01;;;;;;;5.65;5.15;;;19.90;67.50;;;;;;5089061;28;20107;-73
2021/09/10 00:09:26;;;;;;;5.90;5.40;;;19.90;67.30;;;;;;5103112;28;20023;-74
2021/09/10 00:11:52;;;;;;;8.93;5.10;;;19.90;67.30;;;;;;5089481;28;20027;-73
2021/09/10 00:14:18;;;;;;;6.07;5.28;;;19.80;67.60;;;;;;5109880;28;20032;-73
2021/09/10 00:16:43;;;;;;;6.25;5.28;;;19.80;67.60;;;;;;5107904;28;20023;-73
2021/09/10 00:19:10;;;;;;;6.75;5.50;;;19.80;67.70;;;;;;5109603;28;20102;-73
2021/09/10 00:21:35;;;;;;;6.45;5.68;;;19.80;67.60;;;;;;5106350;28;20751;-73
2021/09/10 00:24:01;;;;;;;6.63;5.25;;;19.80;67.60;;;;;;5110490;28;20035;-73
2021/09/10 00:26:27;;;;;;;7.25;5.43;;;19.80;67.80;;;;;;5107288;28;20027;-73
2021/09/10 00:28:53;;;;;;;5.78;5.28;;;19.80;67.90;;;;;;5109226;28;20106;-74
2021/09/10 00:31:18;;;;;;;10.00;6.18;;;19.70;68.00;;;;;;5107729;28;20599;-73
2021/09/10 00:33:44;;;;;;;6.38;5.30;;;19.60;68.40;;;;;;5103820;28;20023;-73
2021/09/10 00:36:10;;;;;;;6.75;5.13;;;19.60;68.60;;;;;;5086457;28;20380;-73
2021/09/10 00:38:35;;;;;;;5.78;4.75;;;19.60;68.80;;;;;;5104664;28;20069;-73
2021/09/10 00:41:01;;;;;;;6.15;5.53;;;19.60;68.90;;;;;;5088683;28;20118;-74
2021/09/10 00:43:27;;;;;;;8.73;5.03;;;19.60;69.00;;;;;;5110281;28;20024;-73
2021/09/10 00:45:57;;;;;;;6.18;4.88;;;19.60;69.10;;;;;;5106914;28;20020;-73
2021/09/10 00:48:23;;;;;;;8.77;5.63;;;19.50;69.10;;;;;;5109154;28;20031;-74
2021/09/10 00:50:50;;;;;;;6.95;5.82;;;19.50;69.10;;;;;;5107043;28;20696;-74
2021/09/10 00:53:16;;;;;;;8.95;5.50;;;19.50;69.10;;;;;;5109047;28;20070;-73
2021/09/10 00:55:47;;;;;;;7.95;5.20;;;19.50;69.30;;;;;;5107151;28;20027;-73
2021/09/10 00:58:13;;;;;;;8.73;5.47;;;19.50;69.50;;;;;;5109737;28;20027;-73
2021/09/10 01:00:40;;;;;;;13.40;6.25;;;19.40;69.80;;;;;;5088578;28;20118;-73
2021/09/10 01:03:06;;;;;;;7.45;5.53;;;19.40;70.80;;;;;;5109326;28;20205;-73
2021/09/10 01:05:32;;;;;;;6.13;5.53;;;19.30;70.10;;;;;;5106043;28;20061;-73
2021/09/10 01:07:59;;;;;;;7.05;5.70;;;19.30;70.20;;;;;;5109223;28;20494;-73
2021/09/10 01:10:26;;;;;;;7.10;5.57;;;19.30;70.10;;;;;;5106798;28;20019;-73
2021/09/10 01:12:53;;;;;;;13.65;6.68;;;19.30;70.00;;;;;;5109254;28;20023;-73
2021/09/10 01:15:20;;;;;;;8.93;5.78;;;19.40;70.80;;;;;;5106475;28;20030;-73
2021/09/10 01:17:46;;;;;;;6.28;5.28;;;19.40;70.60;;;;;;5109149;28;20035;-73
2021/09/10 01:20:12;;;;;;;7.80;6.25;;;19.30;70.10;;;;;;5106328;28;20075;-73
2021/09/10 01:22:38;;;;;;;7.70;5.90;;;19.30;70.20;;;;;;5109117;28;20042;-73
2021/09/10 01:25:15;;;;;;;8.77;6.03;;;19.30;70.40;;;;;;5107951;28;20020;-73
2021/09/10 01:27:44;;;;;;;10.00;6.35;;;19.30;70.20;;;;;;5113542;28;20114;-73
2021/09/10 01:30:12;;;;;;;6.75;6.15;;;19.30;70.10;;;;;;5092653;28;20016;-73
2021/09/10 01:32:38;;;;;;;6.15;5.28;;;19.30;70.10;;;;;;5113373;28;20035;-73
2021/09/10 01:35:04;;;;;;;9.43;5.82;;;19.30;70.30;;;;;;5110283;28;20490;-73
2021/09/10 01:37:30;;;;;;;5.50;4.97;;;19.30;70.30;;;;;;5094681;28;20715;-73
2021/09/10 01:39:56;;;;;;;8.00;5.80;;;19.30;70.30;;;;;;5092533;28;20037;-73
2021/09/10 01:42:21;;;;;;;10.27;6.07;;;19.30;70.30;;;;;;5113850;28;20387;-73
2021/09/10 01:44:47;;;;;;;6.65;5.47;;;19.30;70.30;;;;;;5111363;28;20019;-73
2021/09/10 01:47:13;;;;;;;5.93;5.43;;;19.30;70.10;;;;;;5096991;28;20020;-72
2021/09/10 01:49:39;;;;;;;6.50;5.65;;;19.30;70.60;;;;;;5115273;28;20020;-73
2021/09/10 01:52:05;;;;;;;6.18;5.57;;;19.30;70.40;;;;;;5097344;28;20076;-73
2021/09/10 01:54:31;;;;;;;6.80;5.60;;;19.30;70.40;;;;;;5116613;28;20031;-73
2021/09/10 01:56:57;;;;;;;6.13;5.53;;;19.30;70.60;;;;;;5098000;28;20036;-73
2021/09/10 01:59:23;;;;;;;6.90;5.95;;;19.20;70.90;;;;;;5116379;28;20024;-73
2021/09/10 02:01:49;;;;;;;7.85;4.88;;;19.20;71.00;;;;;;5116156;28;20028;-73
2021/09/10 02:04:15;;;;;;;6.15;5.65;;;19.20;71.10;;;;;;5116476;28;20019;-73
2021/09/10 02:06:40;;;;;;;5.20;4.80;;;19.10;71.50;;;;;;5115993;28;20028;-73
2021/09/10 02:09:06;;;;;;;7.07;6.00;;;19.10;71.50;;;;;;5116232;28;20016;-73
2021/09/10 02:11:32;;;;;;;6.82;5.47;;;19.10;71.50;;;;;;5116095;28;20493;-73
2021/09/10 02:13:57;;;;;;;11.73;5.55;;;19.10;71.70;;;;;;5116165;28;20109;-73
2021/09/10 02:16:23;;;;;;;7.03;5.47;;;19.00;71.90;;;;;;5116023;28;20024;-73
2021/09/10 02:18:49;;;;;;;6.28;5.68;;;19.00;72.00;;;;;;5115902;28;20020;-73
2021/09/10 02:21:15;;;;;;;6.20;5.60;;;19.00;72.10;;;;;;5115041;28;20082;-73
2021/09/10 02:23:41;;;;;;;8.02;5.28;;;19.00;72.10;;;;;;5116026;28;20114;-73
2021/09/10 02:26:06;;;;;;;6.03;5.22;;;19.00;72.00;;;;;;5115435;28;20157;-73
2021/09/10 02:28:32;;;;;;;6.65;5.20;;;19.10;72.10;;;;;;5097191;28;20459;-73
2021/09/10 02:30:58;;;;;;;6.70;5.63;;;19.10;72.10;;;;;;5115583;28;20503;-73
2021/09/10 02:33:24;;;;;;;6.13;5.55;;;19.10;72.20;;;;;;5112621;28;20024;-73
2021/09/10 02:35:50;;;;;;;6.82;5.03;;;19.00;73.20;;;;;;5102306;28;20016;-73
2021/09/10 02:38:16;;;;;;;10.30;5.18;;;19.10;72.40;;;;;;5115480;28;20490;-73
2021/09/10 02:40:42;;;;;;;9.15;5.22;;;19.00;72.40;;;;;;5115357;28;20030;-73
2021/09/10 02:43:07;;;;;;;8.15;5.43;;;19.00;72.40;;;;;;5115516;28;20096;-73
2021/09/10 02:45:33;;;;;;;5.53;5.03;;;18.90;72.60;;;;;;5115401;28;20102;-73
2021/09/10 02:47:59;;;;;;;5.30;4.90;;;18.90;72.90;;;;;;5096921;28;20023;-73
2021/09/10 02:50:25;;;;;;;5.50;4.97;;;18.90;73.00;;;;;;5114802;28;20364;-73
2021/09/10 02:52:51;;;;;;;5.80;5.15;;;18.90;73.00;;;;;;5115102;28;20023;-73
2021/09/10 02:55:17;;;;;;;5.95;5.35;;;18.90;73.10;;;;;;5096493;28;20368;-73
2021/09/10 02:57:42;;;;;;;7.30;5.47;;;18.90;73.10;;;;;;5115082;28;20030;-73
2021/09/10 03:00:08;;;;;;;6.20;5.40;;;19.00;72.90;;;;;;5115056;28;20038;-73
2021/09/10 03:02:34;;;;;;;5.88;5.10;;;19.00;72.70;;;;;;5115113;28;20073;-73
2021/09/10 03:05:00;;;;;;;5.63;4.93;;;19.10;72.60;;;;;;5114928;28;20032;-73
2021/09/10 03:07:25;;;;;;;6.68;4.43;;;19.10;72.70;;;;;;5096582;28;20020;-73
2021/09/10 03:09:51;;;;;;;5.85;5.07;;;19.10;72.70;;;;;;5114854;28;20106;-73
2021/09/10 03:12:17;;;;;;;5.88;4.75;;;19.00;72.60;;;;;;5114862;28;20514;-73
2021/09/10 03:14:43;;;;;;;5.35;4.85;;;19.00;72.70;;;;;;5114978;28;20157;-73
2021/09/10 03:17:08;;;;;;;5.18;4.72;;;19.00;73.50;;;;;;5114862;28;20031;-73
2021/09/10 03:19:34;;;;;;;5.32;4.65;;;19.00;72.70;;;;;;5114624;28;20028;-73
2021/09/10 03:22:00;;;;;;;5.35;4.82;;;19.00;72.80;;;;;;5114543;28;20043;-73
2021/09/10 03:24:25;;;;;;;8.02;4.63;;;19.10;72.60;;;;;;5114690;28;20099;-73
2021/09/10 03:26:51;;;;;;;5.28;4.50;;;19.10;72.70;;;;;;5114564;28;20026;-73
2021/09/10 03:29:17;;;;;;;6.18;5.20;;;19.10;72.50;;;;;;5113620;28;20102;-73
2021/09/10 03:31:42;;;;;;;7.68;5.07;;;19.10;72.60;;;;;;5095240;28;20407;-73
2021/09/10 03:34:08;;;;;;;5.78;5.07;;;19.10;72.80;;;;;;5104181;28;20016;-73
2021/09/10 03:36:34;;;;;;;6.80;4.90;;;19.10;72.80;;;;;;5075624;28;20081;-73
2021/09/10 03:39:00;;;;;;;7.10;4.72;;;19.10;72.70;;;;;;5093644;28;20089;-73
2021/09/10 03:41:25;;;;;;;5.70;4.53;;;19.10;72.90;;;;;;5093958;28;20115;-73
2021/09/10 03:43:54;;;;;;;5.47;4.70;;;19.10;73.00;;;;;;5104689;28;20016;-73
2021/09/10 03:46:20;;;;;;;6.35;5.15;;;19.10;72.80;;;;;;5114242;28;20070;-73
2021/09/10 03:48:47;;;;;;;4.95;4.55;;;19.10;73.00;;;;;;5113360;28;20028;-73
2021/09/10 03:51:13;;;;;;;7.00;4.40;;;19.10;73.00;;;;;;5113628;28;20035;-73
2021/09/10 03:53:39;;;;;;;4.85;4.32;;;19.10;73.20;;;;;;5113919;28;20503;-73
2021/09/10 03:56:05;;;;;;;7.00;4.28;;;19.20;73.10;;;;;;5114206;28;20390;-73
2021/09/10 03:58:31;;;;;;;8.65;4.70;;;19.10;72.90;;;;;;5114023;28;20541;-73
2021/09/10 04:00:57;;;;;;;4.70;4.20;;;19.10;73.10;;;;;;5113712;28;20067;-73
2021/09/10 04:03:23;;;;;;;6.32;5.05;;;19.10;73.40;;;;;;5110587;28;20132;-73
2021/09/10 04:05:49;;;;;;;7.45;4.45;;;19.10;73.50;;;;;;5100575;28;20031;-73
2021/09/10 04:08:15;;;;;;;7.85;4.70;;;19.10;73.80;;;;;;5113366;28;20020;-73
2021/09/10 04:10:41;;;;;;;5.63;4.63;;;19.00;74.00;;;;;;5113767;28;20483;-73
2021/09/10 04:13:07;;;;;;;8.60;4.50;;;19.00;74.20;;;;;;5095740;28;20096;-73
2021/09/10 04:15:33;;;;;;;9.77;4.72;;;19.00;74.90;;;;;;5094802;28;20082;-73
2021/09/10 04:17:59;;;;;;;5.95;4.50;;;18.90;74.70;;;;;;5113854;28;20461;-73
2021/09/10 04:20:25;;;;;;;6.75;4.65;;;18.90;74.60;;;;;;5113207;28;20050;-73
2021/09/10 04:22:51;;;;;;;4.85;4.13;;;18.90;74.70;;;;;;5095285;28;20124;-73
2021/09/10 04:25:17;;;;;;;8.75;4.90;;;18.90;74.60;;;;;;5095020;28;20114;-73
2021/09/10 04:27:43;;;;;;;5.90;4.82;;;19.00;74.70;;;;;;5113421;28;20012;-73
2021/09/10 04:30:10;;;;;;;7.97;5.07;;;19.00;74.60;;;;;;5094522;28;20028;-73
2021/09/10 04:32:36;;;;;;;6.47;5.28;;;19.00;74.40;;;;;;5113125;28;20024;-73
2021/09/10 04:35:03;;;;;;;6.25;4.72;;;18.90;74.50;;;;;;5078211;28;20032;-73
2021/09/10 04:37:29;;;;;;;7.40;5.57;;;18.90;74.70;;;;;;5111861;28;20034;-73
2021/09/10 04:39:55;;;;;;;5.07;4.35;;;18.80;74.80;;;;;;5112927;28;20495;-73
2021/09/10 04:42:21;;;;;;;7.40;4.35;;;18.90;74.80;;;;;;5113449;28;20019;-73
2021/09/10 04:44:47;;;;;;;5.15;4.65;;;18.90;74.60;;;;;;5094902;28;20038;-73
2021/09/10 04:47:13;;;;;;;9.45;5.50;;;18.80;74.60;;;;;;5112615;28;20020;-73
2021/09/10 04:49:40;;;;;;;7.93;5.07;;;18.90;74.60;;;;;;5112734;28;20023;-73
2021/09/10 04:52:06;;;;;;;7.72;5.03;;;18.90;74.50;;;;;;5113030;28;20023;-73
2021/09/10 04:54:32;;;;;;;11.65;5.28;;;18.80;74.50;;;;;;5113006;28;20089;-73
2021/09/10 04:56:57;;;;;;;5.72;4.82;;;18.80;74.50;;;;;;5113235;28;20027;-73
2021/09/10 04:59:23;;;;;;;6.68;5.28;;;18.80;74.50;;;;;;5094531;28;20391;-73
2021/09/10 05:01:49;;;;;;;8.00;5.15;;;18.80;74.60;;;;;;5113063;28;20020;-73
2021/09/10 05:04:14;;;;;;;6.25;5.53;;;18.90;74.60;;;;;;5112858;28;20020;-73
2021/09/10 05:06:40;;;;;;;6.93;5.28;;;18.80;74.60;;;;;;5112992;28;20015;-73
2021/09/10 05:09:06;;;;;;;5.47;4.95;;;18.80;74.70;;;;;;5112828;28;20024;-73
2021/09/10 05:11:31;;;;;;;10.02;5.72;;;18.80;74.60;;;;;;5112834;28;20433;-73
2021/09/10 05:13:57;;;;;;;7.72;5.60;;;18.90;74.80;;;;;;5112870;28;20072;-73
2021/09/10 05:16:23;;;;;;;6.10;5.22;;;18.80;74.60;;;;;;5112824;28;20031;-73
2021/09/10 05:18:49;;;;;;;6.85;5.72;;;18.90;74.70;;;;;;5094445;28;20642;-73
2021/09/10 05:21:14;;;;;;;6.43;5.13;;;18.90;74.20;;;;;;5112850;28;20043;-73
2021/09/10 05:23:40;;;;;;;7.28;5.22;;;18.90;74.10;;;;;;5112891;28;20038;-73
2021/09/10 05:26:06;;;;;;;8.23;5.72;;;18.90;74.10;;;;;;5112883;28;20024;-73
2021/09/10 05:28:32;;;;;;;8.90;5.60;;;18.90;74.10;;;;;;5094488;28;20024;-73
2021/09/10 05:30:57;;;;;;;5.60;4.95;;;18.90;74.30;;;;;;5112888;28;20112;-73
2021/09/10 05:33:23;;;;;;;6.43;5.82;;;18.90;74.30;;;;;;5109625;28;20499;-73
2021/09/10 05:35:49;;;;;;;9.73;5.72;;;19.00;74.60;;;;;;5092425;28;20047;-73
2021/09/10 05:38:14;;;;;;;8.25;6.35;;;19.00;74.50;;;;;;5092363;28;20078;-73
2021/09/10 05:40:40;;;;;;;13.40;6.13;;;18.90;74.70;;;;;;5092404;28;20051;-73
2021/09/10 05:43:06;;;;;;;6.47;5.53;;;19.00;74.60;;;;;;5092369;28;20551;-73
2021/09/10 05:45:32;;;;;;;9.13;5.90;;;19.10;74.00;;;;;;5098821;28;20042;-73
2021/09/10 05:47:58;;;;;;;10.02;5.68;;;19.10;73.40;;;;;;5112506;28;20051;-73
2021/09/10 05:50:23;;;;;;;7.53;5.82;;;19.20;72.90;;;;;;5112722;28;20072;-73
2021/09/10 05:52:49;;;;;;;10.27;6.30;;;19.30;72.50;;;;;;5112420;28;20035;-74
2021/09/10 05:55:15;;;;;;;7.38;6.30;;;19.40;72.10;;;;;;5112208;28;20476;-73
2021/09/10 05:57:41;;;;;;;9.77;6.30;;;19.50;71.60;;;;;;5094111;28;20024;-73
2021/09/10 06:00:07;;;;;;;8.57;6.07;;;19.60;71.50;;;;;;5112468;28;20047;-73
2021/09/10 06:02:32;;;;;;;8.15;5.32;;;19.60;71.30;;;;;;5112481;28;20020;-73
2021/09/10 06:04:58;;;;;;;6.30;5.68;;;19.70;71.10;;;;;;5111580;28;20036;-73
2021/09/10 06:07:24;;;;;;;9.43;5.15;;;19.80;71.20;;;;;;5112187;28;20094;-73
2021/09/10 06:09:50;;;;;;;6.68;6.00;;;19.80;71.20;;;;;;5112356;28;20022;-73
2021/09/10 06:12:16;;;;;;;11.95;5.75;;;19.90;71.20;;;;;;5114999;28;20020;-73
2021/09/10 06:14:41;;;;;;;8.27;5.95;;;19.80;71.50;;;;;;5115972;28;20080;-73
2021/09/10 06:17:07;;;;;;;9.35;5.78;;;19.80;72.10;;;;;;5115933;28;20065;-73
2021/09/10 06:19:33;;;;;;;9.23;6.07;;;19.80;72.20;;;;;;5115727;28;20031;-73
2021/09/10 06:21:59;;;;;;;10.05;5.60;;;19.80;72.40;;;;;;5115879;28;20564;-73
2021/09/10 06:24:24;;;;;;;12.80;5.28;;;19.80;72.60;;;;;;5097371;28;20039;-73
2021/09/10 06:26:50;;;;;;;9.93;5.30;;;19.90;72.70;;;;;;5115508;28;20016;-73
2021/09/10 06:29:16;;;;;;;9.23;5.65;;;20.00;72.50;;;;;;5115656;28;20081;-73
2021/09/10 06:31:42;;;;;;;6.85;5.70;;;20.00;72.30;;;;;;5097480;28;20020;-73
2021/09/10 06:34:08;;;;;;;8.40;5.65;;;20.10;72.50;;;;;;5115595;28;20452;-73
2021/09/10 06:36:34;;;;;;;9.38;5.32;;;20.10;72.70;;;;;;5110122;28;20063;-73
2021/09/10 06:39:00;;;;;;;12.27;6.28;;;20.10;72.60;;;;;;5105464;28;20062;-73
2021/09/10 06:41:25;;;;;;;12.20;5.45;;;20.20;72.70;;;;;;5095612;28;20670;-74
2021/09/10 06:43:51;;;;;;;8.73;5.85;;;20.20;72.50;;;;;;5106180;28;20475;-73
2021/09/10 06:46:17;;;;;;;7.03;5.47;;;20.20;72.60;;;;;;5105375;28;20032;-73
2021/09/10 06:48:43;;;;;;;8.10;5.68;;;20.30;72.50;;;;;;5105106;28;20031;-73
2021/09/10 06:51:08;;;;;;;6.55;5.35;;;20.30;72.70;;;;;;5086808;28;20114;-73
2021/09/10 06:53:35;;;;;;;7.60;5.93;;;20.40;72.80;;;;;;5107879;28;20028;-73
2021/09/10 06:56:02;;;;;;;6.25;5.45;;;20.40;72.90;;;;;;5113163;28;20035;-74
2021/09/10 06:58:28;;;;;;;11.25;5.90;;;20.40;72.70;;;;;;5102206;28;20027;-74
2021/09/10 07:00:54;;;;;;;7.68;5.55;;;20.50;73.00;;;;;;5102708;28;20081;-73
2021/09/10 07:03:19;;;;;;;5.65;5.05;;;20.50;73.20;;;;;;5094485;28;20027;-75
2021/09/10 07:05:45;;;;;;;7.07;5.70;;;20.60;73.70;;;;;;5095450;28;20024;-75
2021/09/10 07:08:11;;;;;;;8.32;5.25;;;20.70;73.90;;;;;;5110631;28;20034;-75
2021/09/10 07:10:37;;;;;;;9.93;5.70;;;20.70;73.70;;;;;;5112465;28;20028;-75
2021/09/10 07:13:05;;;;;;;8.02;5.20;;;20.80;74.30;;;;;;5102184;28;20020;-75
2021/09/10 07:15:31;;;;;;;8.15;5.05;;;20.80;73.90;;;;;;5110507;28;20160;-75
2021/09/10 07:17:56;;;;;;;7.72;5.97;;;20.80;74.30;;;;;;5090555;28;20494;-75
2021/09/10 07:20:22;;;;;;;10.38;6.57;;;20.80;76.50;;;;;;5112702;28;20092;-75
2021/09/10 07:22:48;;;;;;;12.25;7.07;;;20.90;77.30;;;;;;5110851;28;20019;-75
2021/09/10 07:25:14;;;;;;;18.73;9.07;;;20.90;76.60;;;;;;5113629;28;20482;-75
2021/09/10 07:27:39;;;;;;;17.65;10.52;;;21.00;78.10;;;;;;5104529;28;20019;-75
2021/09/10 07:30:06;;;;;;;11.45;7.80;;;21.00;79.30;;;;;;5095149;28;20500;-75
2021/09/10 07:32:31;;;;;;;10.68;6.80;;;21.10;79.30;;;;;;5113617;28;20015;-75
2021/09/10 07:34:57;;;;;;;17.27;9.65;;;21.10;79.30;;;;;;5112431;28;20034;-74
2021/09/10 07:37:30;;;;;;;12.63;6.47;;;21.20;78.80;;;;;;5104331;28;20028;-74
2021/09/10 07:39:56;;;;;;;7.07;5.75;;;21.30;73.20;;;;;;5094895;28;20028;-75
2021/09/10 07:42:22;;;;;;;7.38;5.13;;;21.50;72.30;;;;;;5104705;28;20015;-75
2021/09/10 07:44:48;;;;;;;8.13;4.63;;;21.50;72.60;;;;;;5112861;28;20035;-75
2021/09/10 07:47:15;;;;;;;5.82;4.35;;;21.60;72.00;;;;;;5094613;28;20025;-75
2021/09/10 07:49:41;;;;;;;11.73;4.47;;;21.60;73.50;;;;;;5113526;28;20012;-75
2021/09/10 07:52:07;;;;;;;7.07;4.38;;;21.70;70.50;;;;;;5113589;28;20028;-75
2021/09/10 07:54:33;;;;;;;6.20;4.70;;;21.70;71.60;;;;;;5095465;28;20437;-75
2021/09/10 07:56:59;;;;;;;8.02;5.07;;;21.70;71.30;;;;;;5113591;28;20029;-75
2021/09/10 07:59:24;;;;;;;14.25;4.57;;;21.70;70.20;;;;;;5113148;28;20015;-74
2021/09/10 08:01:50;;;;;;;9.40;5.03;;;21.80;68.90;;;;;;5113083;28;20084;-75
2021/09/10 08:04:16;;;;;;;5.32;4.82;;;21.90;70.40;;;;;;5109655;28;20394;-75
2021/09/10 08:06:42;;;;;;;6.95;4.93;;;21.90;70.40;;;;;;5094371;28;20034;-75
2021/09/10 08:09:08;;;;;;;6.63;4.57;;;21.90;69.20;;;;;;5103960;28;20436;-75
2021/09/10 08:11:34;;;;;;;9.43;4.55;;;21.90;70.30;;;;;;5088713;28;20016;-75
2021/09/10 08:14:02;;;;;;;4.82;4.43;;;21.90;70.80;;;;;;5111568;28;20470;-74
2021/09/10 08:16:28;;;;;;;5.82;4.00;;;21.90;71.00;;;;;;5108217;28;20024;-75
2021/09/10 08:18:54;;;;;;;7.30;4.80;;;21.90;72.20;;;;;;5088188;28;20032;-75
2021/09/10 08:21:20;;;;;;;7.07;4.85;;;22.00;73.20;;;;;;5110253;28;20036;-74
2021/09/10 08:23:45;;;;;;;10.30;4.93;;;22.00;72.50;;;;;;5109483;28;20066;-75
2021/09/10 08:26:11;;;;;;;4.95;4.55;;;22.00;73.30;;;;;;5110879;28;20037;-75
2021/09/10 08:28:37;;;;;;;5.78;4.25;;;22.10;72.20;;;;;;5111728;28;20023;-74
2021/09/10 08:31:03;;;;;;;4.97;4.57;;;22.10;72.30;;;;;;5108690;28;20012;-75
2021/09/10 08:33:28;;;;;;;5.70;4.65;;;22.10;72.50;;;;;;5111894;28;20030;-74
2021/09/10 08:35:54;;;;;;;5.15;4.47;;;22.20;73.70;;;;;;5103311;28;20107;-75
2021/09/10 08:38:20;;;;;;;7.50;4.65;;;22.20;73.90;;;;;;5095373;28;20027;-75
2021/09/10 08:40:47;;;;;;;9.40;4.90;;;22.30;73.00;;;;;;5110019;28;20028;-75
2021/09/10 08:43:14;;;;;;;4.75;4.28;;;22.30;73.80;;;;;;5111620;28;20100;-75
2021/09/10 08:45:41;;;;;;;5.03;4.57;;;22.50;72.00;;;;;;5111839;28;20020;-75
2021/09/10 08:48:08;;;;;;;6.38;4.00;;;22.60;70.60;;;;;;5107218;27;20390;-75
2021/09/10 08:50:34;;;;;;;5.40;4.18;;;22.60;71.00;;;;;;5107548;28;20020;-75
2021/09/10 08:53:00;;;;;;;5.70;4.20;;;22.60;71.70;;;;;;5093586;28;20011;-77
2021/09/10 08:55:25;;;;;;;6.50;4.18;;;22.70;73.10;;;;;;5090676;28;20367;-76
2021/09/10 08:57:53;;;;;;;5.43;4.15;;;22.70;70.60;;;;;;5098564;28;20467;-76
2021/09/10 09:00:35;;;;;;;5.97;4.13;;;22.80;69.30;;;;;;5111947;28;20032;-76
2021/09/10 09:03:02;;;;;;;7.43;4.35;;;22.80;70.40;;;;;;5110230;28;20026;-75
2021/09/10 09:05:33;;;;;;;6.75;4.15;;;23.10;65.40;;;;;;5109322;28;20073;-75
2021/09/10 09:08:09;;;;;;;7.93;4.60;;;23.00;67.10;;;;;;5111213;28;20019;-75
2021/09/10 09:11:07;;;;;;;4.15;3.60;;;23.10;66.00;;;;;;5093880;28;20051;-75
2021/09/10 09:13:38;;;;;;;4.95;4.32;;;23.20;66.40;;;;;;5093819;28;20538;-74
2021/09/10 09:16:19;;;;;;;6.35;4.65;;;23.20;67.10;;;;;;5094743;28;20027;-74
2021/09/10 09:18:50;;;;;;;5.78;4.78;;;23.30;65.70;;;;;;5113039;28;20066;-75
2021/09/10 09:21:33;;;;;;;7.82;4.43;;;23.40;66.40;;;;;;5094582;28;20134;-75
2021/09/10 09:24:15;;;;;;;7.35;5.40;;;23.40;68.30;;;;;;5111700;28;20096;-75
2021/09/10 09:26:42;;;;;;;;;;;23.40;66.40;;;;;;5110375;28;20080;-74
2021/09/10 09:29:11;;;;;;;5.82;4.35;;;23.40;66.40;;;;;;5093504;28;19931;-75
2021/09/10 09:31:38;;;;;;;5.30;4.43;;;23.40;66.00;;;;;;5085611;28;20073;-75
2021/09/10 09:34:05;;;;;;;4.40;4.00;;;23.40;65.70;;;;;;5093442;28;20375;-74
2021/09/10 09:36:32;;;;;;;6.28;4.35;;;23.30;64.80;;;;;;5112493;28;20023;-74
2021/09/10 09:38:58;;;;;;;16.65;5.30;;;23.30;64.40;;;;;;5112783;28;20080;-74
2021/09/10 09:41:26;;;;;;;14.23;5.28;;;23.40;64.90;;;;;;5112956;28;20102;-74
2021/09/10 09:44:08;;;;;;;5.60;3.95;;;23.40;63.30;;;;;;5094415;28;20045;-75
2021/09/10 09:46:34;;;;;;;8.52;4.18;;;23.50;62.10;;;;;;5114399;28;20020;-74
2021/09/10 09:49:14;;;;;;;7.95;4.50;;;23.50;62.10;;;;;;5116510;28;20110;-74
2021/09/10 09:52:01;;;;;;;5.13;4.25;;;23.60;63.50;;;;;;5117097;28;20012;-75
2021/09/10 09:54:27;;;;;;;5.88;4.38;;;23.70;63.10;;;;;;5116324;28;20058;-75
2021/09/10 09:56:54;;;;;;;15.32;6.43;;;23.80;59.90;;;;;;5115379;28;20471;-74
2021/09/10 09:59:19;;;;;;;5.95;4.10;;;23.80;62.50;;;;;;5116334;28;20505;-75
2021/09/10 10:01:45;;;;;;;6.38;4.47;;;24.00;62.90;;;;;;5116296;28;20028;-75
2021/09/10 10:04:11;;;;;;;8.90;4.47;;;23.90;64.90;;;;;;5116250;28;20024;-75
2021/09/10 10:06:38;;;;;;;6.30;4.40;;;24.10;62.60;;;;;;5116398;28;20027;-75
2021/09/10 10:09:23;;;;;;;12.40;4.45;;;24.20;61.80;;;;;;5116304;28;20031;-76
2021/09/10 10:11:59;;;;;;;5.72;4.80;;;24.20;63.60;;;;;;5116362;28;20027;-75
2021/09/10 10:14:39;;;;;;;8.15;5.32;;;24.20;61.50;;;;;;5097537;28;20012;-76
2021/09/10 10:17:14;;;;;;;6.20;5.60;;;24.30;62.40;;;;;;5116121;28;20019;-75
2021/09/10 10:19:44;;;;;;;10.38;5.38;;;24.30;61.50;;;;;;5114923;27;20016;-76
2021/09/10 10:22:11;;;;;;;17.17;5.65;;;24.30;62.00;;;;;;5113082;28;20088;-75
2021/09/10 10:24:37;;;;;;;13.98;6.25;;;24.40;61.20;;;;;;5110899;28;20057;-75
2021/09/10 10:27:27;;;;;;;10.63;5.40;;;24.40;63.20;;;;;;5093665;28;20066;-76
2021/09/10 10:29:53;;;;;;;9.20;6.07;;;24.40;61.70;;;;;;5094741;28;20027;-75
2021/09/10 10:32:54;;;;;;;8.27;5.95;;;24.50;62.20;;;;;;5114539;28;20084;-75
2021/09/10 10:35:24;;;;;;;8.90;5.68;;;24.50;61.00;;;;;;5043987;28;20034;-75
2021/09/10 10:38:05;;;;;;;7.47;6.00;;;24.40;61.00;;;;;;5097384;28;20039;-75
2021/09/10 10:40:51;;;;;;;8.07;5.82;;;24.50;63.30;;;;;;5115582;28;20725;-75
2021/09/10 10:43:23;;;;;;;9.05;6.20;;;24.60;59.80;;;;;;5115552;28;20066;-75
2021/09/10 10:45:49;;;;;;;7.55;6.18;;;24.60;59.80;;;;;;5114549;28;20026;-74
2021/09/10 10:48:33;;;;;;;9.95;6.95;;;24.60;60.00;;;;;;5115509;28;20028;-75
2021/09/10 10:51:30;;;;;;;10.55;6.78;;;24.70;59.90;;;;;;5100297;28;20016;-75
2021/09/10 10:53:56;;;;;;;8.85;6.07;;;24.80;58.30;;;;;;5097106;28;20440;-75
2021/09/10 10:56:22;;;;;;;13.25;6.22;;;24.80;58.70;;;;;;5115127;28;20012;-75
2021/09/10 10:59:15;;;;;;;7.13;5.70;;;24.80;59.10;;;;;;5114755;28;20095;-75
2021/09/10 11:02:22;;;;;;;11.95;7.30;;;24.80;61.10;;;;;;5092288;28;20478;-75
2021/09/10 11:04:58;;;;;;;11.88;6.30;;;24.90;58.30;;;;;;5110559;28;20057;-74
2021/09/10 11:07:24;;;;;;;9.90;6.32;;;25.00;58.00;;;;;;5096368;28;20076;-75
2021/09/10 11:10:03;;;;;;;10.48;5.95;;;25.00;57.90;;;;;;5115091;28;20020;-75
2021/09/10 11:12:30;;;;;;;6.13;4.88;;;25.00;58.00;;;;;;5114918;28;20026;-73
2021/09/10 11:14:56;;;;;;;6.72;5.15;;;25.10;59.70;;;;;;5114978;28;20034;-73
2021/09/10 11:17:27;;;;;;;6.82;5.28;;;25.30;59.10;;;;;;5114954;28;20106;-73
2021/09/10 11:19:55;;;;;;;7.20;5.53;;;25.30;58.30;;;;;;5114031;28;20036;-74
2021/09/10 11:22:22;;;;;;;10.15;6.03;;;25.40;57.60;;;;;;5113370;28;20128;-73
2021/09/10 11:24:48;;;;;;;6.18;5.05;;;25.40;57.80;;;;;;5108160;28;20050;-74
2021/09/10 11:27:30;;;;;;;14.38;5.15;;;25.40;59.30;;;;;;5114616;28;20028;-73
2021/09/10 11:30:07;;;;;;;6.68;4.93;;;25.50;60.00;;;;;;5114637;28;20023;-73
2021/09/10 11:32:33;;;;;;;6.32;5.18;;;25.60;60.00;;;;;;5096655;28;20468;-73
2021/09/10 11:35:00;;;;;;;5.68;5.07;;;25.50;59.00;;;;;;5114371;28;20157;-73
2021/09/10 11:37:28;;;;;;;7.10;4.95;;;25.60;58.60;;;;;;5113705;28;20023;-74
2021/09/10 11:39:54;;;;;;;10.88;5.03;;;25.60;58.80;;;;;;5095413;28;20463;-74
2021/09/10 11:42:36;;;;;;;7.55;5.28;;;25.60;58.30;;;;;;5113530;28;20020;-74
2021/09/10 11:45:02;;;;;;;;;;;25.60;58.50;;;;;;5109157;28;20153;-73
2021/09/10 11:47:27;;;;;;;6.43;5.40;;;25.60;58.50;;;;;;5113943;28;19998;-73
2021/09/10 11:50:00;;;;;;;9.77;4.82;;;25.50;58.00;;;;;;5113185;28;20018;-74
2021/09/10 11:52:35;;;;;;;6.05;4.70;;;25.40;58.80;;;;;;5095160;28;20020;-74
2021/09/10 11:55:11;;;;;;;6.50;5.28;;;25.30;58.40;;;;;;5093567;28;20023;-74
2021/09/10 11:57:38;;;;;;;9.75;5.15;;;25.30;58.30;;;;;;5114131;28;20482;-75
2021/09/10 12:00:06;;;;;;;9.93;5.63;;;25.20;58.50;;;;;;5114497;28;20471;-74
2021/09/10 12:02:33;;;;;;;7.63;5.20;;;25.20;58.10;;;;;;5114051;28;20035;-74
2021/09/10 12:05:01;;;;;;;9.27;4.95;;;25.20;58.10;;;;;;5114035;28;20027;-74
2021/09/10 12:07:32;;;;;;;6.22;4.70;;;25.20;58.60;;;;;;5114087;28;20026;-74
2021/09/10 12:09:58;;;;;;;9.25;4.63;;;25.20;58.90;;;;;;5113980;28;20046;-74
2021/09/10 12:12:28;;;;;;;6.90;5.60;;;25.30;58.90;;;;;;5112913;28;20020;-75
2021/09/10 12:14:57;;;;;;;7.20;5.32;;;25.40;57.80;;;;;;5111021;28;20102;-74
2021/09/10 12:17:33;;;;;;;14.73;5.10;;;25.40;57.80;;;;;;5110519;28;20487;-74
2021/09/10 12:20:02;;;;;;;7.15;5.00;;;25.40;58.00;;;;;;5110452;28;20103;-74
2021/09/10 12:22:39;;;;;;;11.82;5.22;;;25.30;58.00;;;;;;5111270;28;20120;-75
2021/09/10 12:25:31;;;;;;;6.10;5.03;;;25.30;58.40;;;;;;5110933;28;20038;-74
2021/09/10 12:28:03;;;;;;;;;;;25.30;58.90;;;;;;5092420;28;20035;-74
2021/09/10 12:31:20;;;;;;;7.25;5.47;;;25.30;57.50;;;;;;5110233;28;19900;-74
2021/09/10 12:33:46;;;;;;;5.57;5.05;;;25.30;58.00;;;;;;5107858;28;20028;-75
2021/09/10 12:36:12;;;;;;;9.40;5.25;;;25.30;58.40;;;;;;5110733;28;20046;-74
2021/09/10 12:38:40;;;;;;;6.43;4.93;;;25.30;58.40;;;;;;5091268;28;20782;-74
2021/09/10 12:41:07;;;;;;;6.20;5.35;;;25.20;58.50;;;;;;5095896;28;20053;-74
2021/09/10 12:43:34;;;;;;;8.02;5.45;;;25.20;58.20;;;;;;5093591;28;20122;-74
2021/09/10 12:46:00;;;;;;;10.48;6.53;;;25.20;58.20;;;;;;5113183;28;20030;-74
2021/09/10 12:48:26;;;;;;;8.60;5.43;;;25.20;57.50;;;;;;5111320;28;20088;-75
2021/09/10 12:50:53;;;;;;;6.10;5.50;;;25.30;57.50;;;;;;5107944;28;20027;-73